sensor_id;sensor_type;location;lat;lon;timestamp;P1;durP1;ratioP1;P2;durP2;ratioP2
48823;SDS011;34640;53.590;10.054;2022-07-18T00:01:55;7.45;;;2.95;;
48823;SDS011;34640;53.590;10.054;2022-07-18T00:04:30;6.57;;;3.22;;
48823;SDS011;34640;53.590;10.054;2022-07-18T00:07:03;6.43;;;3.17;;
48823;SDS011;34640;53.590;10.054;2022-07-18T00:09:36;6.47;;;2.75;;
48823;SDS011;34640;53.590;10.054;2022-07-18T00:12:10;6.93;;;3.20;;
48823;SDS011;34640;53.590;10.054;2022-07-18T00:14:45;5.25;;;3.03;;
48823;SDS011;34640;53.590;10.054;2022-07-18T00:17:18;6.22;;;3.22;;
48823;SDS011;34640;53.590;10.054;2022-07-18T00:19:51;6.20;;;3.13;;
48823;SDS011;34640;53.590;10.054;2022-07-18T00:22:24;7.05;;;3.58;;
48823;SDS011;34640;53.590;10.054;2022-07-18T00:24:57;6.15;;;3.17;;
48823;SDS011;34640;53.590;10.054;2022-07-18T00:27:30;7.07;;;3.30;;
48823;SDS011;34640;53.590;10.054;2022-07-18T00:30:05;6.15;;;3.08;;
48823;SDS011;34640;53.590;10.054;2022-07-18T00:32:39;6.10;;;3.20;;
48823;SDS011;34640;53.590;10.054;2022-07-18T00:35:12;6.97;;;3.13;;
48823;SDS011;34640;53.590;10.054;2022-07-18T00:37:45;7.32;;;3.53;;
48823;SDS011;34640;53.590;10.054;2022-07-18T00:40:19;5.90;;;3.15;;
48823;SDS011;34640;53.590;10.054;2022-07-18T00:42:52;5.30;;;3.22;;
48823;SDS011;34640;53.590;10.054;2022-07-18T00:45:26;6.20;;;3.08;;
48823;SDS011;34640;53.590;10.054;2022-07-18T00:48:04;6.78;;;3.20;;
48823;SDS011;34640;53.590;10.054;2022-07-18T00:50:37;7.57;;;3.83;;
48823;SDS011;34640;53.590;10.054;2022-07-18T00:53:10;6.07;;;3.22;;
48823;SDS011;34640;53.590;10.054;2022-07-18T00:55:44;8.80;;;3.35;;
48823;SDS011;34640;53.590;10.054;2022-07-18T00:58:18;6.03;;;3.42;;
48823;SDS011;34640;53.590;10.054;2022-07-18T01:00:52;5.75;;;3.35;;
48823;SDS011;34640;53.590;10.054;2022-07-18T01:03:43;6.20;;;3.17;;
48823;SDS011;34640;53.590;10.054;2022-07-18T01:06:17;8.10;;;3.88;;
48823;SDS011;34640;53.590;10.054;2022-07-18T01:08:51;9.30;;;3.83;;
48823;SDS011;34640;53.590;10.054;2022-07-18T01:11:24;7.70;;;3.70;;
48823;SDS011;34640;53.590;10.054;2022-07-18T01:13:57;9.55;;;3.70;;
48823;SDS011;34640;53.590;10.054;2022-07-18T01:16:32;7.78;;;4.00;;
48823;SDS011;34640;53.590;10.054;2022-07-18T01:19:06;6.65;;;3.75;;
48823;SDS011;34640;53.590;10.054;2022-07-18T01:21:40;7.68;;;3.67;;
48823;SDS011;34640;53.590;10.054;2022-07-18T01:24:13;6.60;;;3.63;;
48823;SDS011;34640;53.590;10.054;2022-07-18T01:26:46;6.32;;;3.78;;
48823;SDS011;34640;53.590;10.054;2022-07-18T01:29:19;8.07;;;3.97;;
48823;SDS011;34640;53.590;10.054;2022-07-18T01:31:52;6.82;;;3.70;;
48823;SDS011;34640;53.590;10.054;2022-07-18T01:34:25;5.85;;;3.42;;
48823;SDS011;34640;53.590;10.054;2022-07-18T01:37:00;6.43;;;3.63;;
48823;SDS011;34640;53.590;10.054;2022-07-18T01:39:35;7.95;;;3.85;;
48823;SDS011;34640;53.590;10.054;2022-07-18T01:42:08;5.85;;;3.20;;
48823;SDS011;34640;53.590;10.054;2022-07-18T01:44:42;6.63;;;3.45;;
48823;SDS011;34640;53.590;10.054;2022-07-18T01:47:16;6.43;;;3.78;;
48823;SDS011;34640;53.590;10.054;2022-07-18T01:49:49;5.35;;;3.13;;
48823;SDS011;34640;53.590;10.054;2022-07-18T01:52:24;8.65;;;3.63;;
48823;SDS011;34640;53.590;10.054;2022-07-18T01:54:57;8.32;;;3.38;;
48823;SDS011;34640;53.590;10.054;2022-07-18T01:57:30;6.38;;;3.40;;
48823;SDS011;34640;53.590;10.054;2022-07-18T02:00:03;9.30;;;3.70;;
48823;SDS011;34640;53.590;10.054;2022-07-18T02:02:37;8.07;;;3.83;;
48823;SDS011;34640;53.590;10.054;2022-07-18T02:05:12;8.40;;;3.45;;
48823;SDS011;34640;53.590;10.054;2022-07-18T02:07:46;7.30;;;3.45;;
48823;SDS011;34640;53.590;10.054;2022-07-18T02:10:20;6.07;;;3.30;;
48823;SDS011;34640;53.590;10.054;2022-07-18T02:12:54;5.88;;;3.42;;
48823;SDS011;34640;53.590;10.054;2022-07-18T02:15:28;7.05;;;3.50;;
48823;SDS011;34640;53.590;10.054;2022-07-18T02:18:01;7.45;;;3.88;;
48823;SDS011;34640;53.590;10.054;2022-07-18T02:20:34;8.15;;;3.10;;
48823;SDS011;34640;53.590;10.054;2022-07-18T02:23:08;7.57;;;3.40;;
48823;SDS011;34640;53.590;10.054;2022-07-18T02:25:41;8.02;;;3.05;;
48823;SDS011;34640;53.590;10.054;2022-07-18T02:28:14;5.38;;;3.33;;
48823;SDS011;34640;53.590;10.054;2022-07-18T02:30:48;7.90;;;3.47;;
48823;SDS011;34640;53.590;10.054;2022-07-18T02:33:21;6.43;;;3.20;;
48823;SDS011;34640;53.590;10.054;2022-07-18T02:35:54;11.40;;;3.78;;
48823;SDS011;34640;53.590;10.054;2022-07-18T02:38:29;10.13;;;3.28;;
48823;SDS011;34640;53.590;10.054;2022-07-18T02:41:02;7.47;;;3.50;;
48823;SDS011;34640;53.590;10.054;2022-07-18T02:43:35;8.35;;;3.58;;
48823;SDS011;34640;53.590;10.054;2022-07-18T02:46:08;7.85;;;3.38;;
48823;SDS011;34640;53.590;10.054;2022-07-18T02:48:41;6.03;;;2.97;;
48823;SDS011;34640;53.590;10.054;2022-07-18T02:51:14;6.03;;;3.10;;
48823;SDS011;34640;53.590;10.054;2022-07-18T02:53:48;9.07;;;3.67;;
48823;SDS011;34640;53.590;10.054;2022-07-18T02:56:21;6.55;;;3.25;;
48823;SDS011;34640;53.590;10.054;2022-07-18T02:58:54;8.43;;;3.30;;
48823;SDS011;34640;53.590;10.054;2022-07-18T03:01:27;6.47;;;3.40;;
48823;SDS011;34640;53.590;10.054;2022-07-18T03:04:00;6.78;;;3.15;;
48823;SDS011;34640;53.590;10.054;2022-07-18T03:06:34;5.28;;;3.13;;
48823;SDS011;34640;53.590;10.054;2022-07-18T03:09:08;6.20;;;3.15;;
48823;SDS011;34640;53.590;10.054;2022-07-18T03:11:41;5.68;;;3.22;;
48823;SDS011;34640;53.590;10.054;2022-07-18T03:14:15;7.43;;;3.42;;
48823;SDS011;34640;53.590;10.054;2022-07-18T03:16:48;9.10;;;3.30;;
48823;SDS011;34640;53.590;10.054;2022-07-18T03:19:21;5.80;;;3.33;;
48823;SDS011;34640;53.590;10.054;2022-07-18T03:21:54;8.13;;;3.00;;
48823;SDS011;34640;53.590;10.054;2022-07-18T03:24:29;5.45;;;3.25;;
48823;SDS011;34640;53.590;10.054;2022-07-18T03:27:03;6.07;;;3.13;;
48823;SDS011;34640;53.590;10.054;2022-07-18T03:29:36;6.72;;;3.35;;
48823;SDS011;34640;53.590;10.054;2022-07-18T03:32:09;9.50;;;3.10;;
48823;SDS011;34640;53.590;10.054;2022-07-18T03:34:41;7.40;;;3.60;;
48823;SDS011;34640;53.590;10.054;2022-07-18T03:37:15;6.30;;;3.83;;
48823;SDS011;34640;53.590;10.054;2022-07-18T03:39:49;7.28;;;3.40;;
48823;SDS011;34640;53.590;10.054;2022-07-18T03:42:22;7.13;;;3.60;;
48823;SDS011;34640;53.590;10.054;2022-07-18T03:44:55;6.47;;;3.67;;
48823;SDS011;34640;53.590;10.054;2022-07-18T03:47:28;6.88;;;3.67;;
48823;SDS011;34640;53.590;10.054;2022-07-18T03:50:01;8.32;;;3.70;;
48823;SDS011;34640;53.590;10.054;2022-07-18T03:52:35;9.40;;;3.53;;
48823;SDS011;34640;53.590;10.054;2022-07-18T03:55:09;6.93;;;3.70;;
48823;SDS011;34640;53.590;10.054;2022-07-18T03:57:42;8.35;;;3.40;;
48823;SDS011;34640;53.590;10.054;2022-07-18T04:00:15;11.90;;;4.75;;
48823;SDS011;34640;53.590;10.054;2022-07-18T04:02:49;10.52;;;3.88;;
48823;SDS011;34640;53.590;10.054;2022-07-18T04:05:22;8.48;;;3.13;;
48823;SDS011;34640;53.590;10.054;2022-07-18T04:07:55;8.68;;;3.30;;
48823;SDS011;34640;53.590;10.054;2022-07-18T04:10:30;7.25;;;3.78;;
48823;SDS011;34640;53.590;10.054;2022-07-18T04:13:03;7.75;;;4.05;;
48823;SDS011;34640;53.590;10.054;2022-07-18T04:15:36;5.72;;;3.90;;
48823;SDS011;34640;53.590;10.054;2022-07-18T04:18:10;9.65;;;4.13;;
48823;SDS011;34640;53.590;10.054;2022-07-18T04:20:43;8.88;;;3.92;;
48823;SDS011;34640;53.590;10.054;2022-07-18T04:23:16;10.70;;;4.07;;
48823;SDS011;34640;53.590;10.054;2022-07-18T04:25:51;9.02;;;3.80;;
48823;SDS011;34640;53.590;10.054;2022-07-18T04:28:24;10.45;;;3.78;;
48823;SDS011;34640;53.590;10.054;2022-07-18T04:30:57;8.48;;;3.88;;
48823;SDS011;34640;53.590;10.054;2022-07-18T04:33:31;11.85;;;4.65;;
48823;SDS011;34640;53.590;10.054;2022-07-18T04:36:04;9.05;;;4.05;;
48823;SDS011;34640;53.590;10.054;2022-07-18T04:38:37;11.00;;;4.50;;
48823;SDS011;34640;53.590;10.054;2022-07-18T04:41:13;9.52;;;4.38;;
48823;SDS011;34640;53.590;10.054;2022-07-18T04:43:48;9.05;;;4.25;;
48823;SDS011;34640;53.590;10.054;2022-07-18T04:46:21;9.18;;;4.43;;
48823;SDS011;34640;53.590;10.054;2022-07-18T04:48:55;10.45;;;4.72;;
48823;SDS011;34640;53.590;10.054;2022-07-18T04:51:28;9.40;;;4.55;;
48823;SDS011;34640;53.590;10.054;2022-07-18T04:54:01;9.52;;;4.22;;
48823;SDS011;34640;53.590;10.054;2022-07-18T04:56:35;11.80;;;4.40;;
48823;SDS011;34640;53.590;10.054;2022-07-18T04:59:08;13.55;;;8.20;;
48823;SDS011;34640;53.590;10.054;2022-07-18T05:01:42;8.90;;;3.90;;
48823;SDS011;34640;53.590;10.054;2022-07-18T05:04:15;6.95;;;3.95;;
48823;SDS011;34640;53.590;10.054;2022-07-18T05:06:48;8.63;;;4.15;;
48823;SDS011;34640;53.590;10.054;2022-07-18T05:09:21;8.50;;;4.20;;
48823;SDS011;34640;53.590;10.054;2022-07-18T05:11:55;11.30;;;4.65;;
48823;SDS011;34640;53.590;10.054;2022-07-18T05:14:29;9.05;;;4.30;;
48823;SDS011;34640;53.590;10.054;2022-07-18T05:17:02;9.52;;;4.30;;
48823;SDS011;34640;53.590;10.054;2022-07-18T05:19:35;12.00;;;3.95;;
48823;SDS011;34640;53.590;10.054;2022-07-18T05:22:08;6.28;;;3.78;;
48823;SDS011;34640;53.590;10.054;2022-07-18T05:24:41;11.00;;;4.20;;
48823;SDS011;34640;53.590;10.054;2022-07-18T05:27:15;7.55;;;3.55;;
48823;SDS011;34640;53.590;10.054;2022-07-18T05:29:49;9.07;;;3.85;;
48823;SDS011;34640;53.590;10.054;2022-07-18T05:32:21;11.48;;;4.80;;
48823;SDS011;34640;53.590;10.054;2022-07-18T05:34:55;9.90;;;3.95;;
48823;SDS011;34640;53.590;10.054;2022-07-18T05:37:27;8.40;;;4.13;;
48823;SDS011;34640;53.590;10.054;2022-07-18T05:40:01;10.35;;;4.50;;
48823;SDS011;34640;53.590;10.054;2022-07-18T05:42:35;10.32;;;4.03;;
48823;SDS011;34640;53.590;10.054;2022-07-18T05:45:24;8.50;;;4.10;;
48823;SDS011;34640;53.590;10.054;2022-07-18T05:47:58;10.57;;;4.20;;
48823;SDS011;34640;53.590;10.054;2022-07-18T05:50:31;7.97;;;4.43;;
48823;SDS011;34640;53.590;10.054;2022-07-18T05:53:04;12.40;;;4.45;;
48823;SDS011;34640;53.590;10.054;2022-07-18T05:55:38;13.52;;;4.55;;
48823;SDS011;34640;53.590;10.054;2022-07-18T05:58:12;11.90;;;4.90;;
48823;SDS011;34640;53.590;10.054;2022-07-18T06:00:45;9.52;;;4.07;;
48823;SDS011;34640;53.590;10.054;2022-07-18T06:03:18;8.27;;;4.03;;
48823;SDS011;34640;53.590;10.054;2022-07-18T06:05:52;7.43;;;4.40;;
48823;SDS011;34640;53.590;10.054;2022-07-18T06:08:30;8.93;;;4.10;;
48823;SDS011;34640;53.590;10.054;2022-07-18T06:11:04;10.30;;;4.25;;
48823;SDS011;34640;53.590;10.054;2022-07-18T06:13:39;10.02;;;4.45;;
48823;SDS011;34640;53.590;10.054;2022-07-18T06:16:13;10.80;;;3.80;;
48823;SDS011;34640;53.590;10.054;2022-07-18T06:18:46;10.57;;;4.07;;
48823;SDS011;34640;53.590;10.054;2022-07-18T06:21:20;10.88;;;3.90;;
48823;SDS011;34640;53.590;10.054;2022-07-18T06:23:53;9.75;;;3.88;;
48823;SDS011;34640;53.590;10.054;2022-07-18T06:26:26;8.70;;;3.67;;
48823;SDS011;34640;53.590;10.054;2022-07-18T06:29:00;13.98;;;3.90;;
48823;SDS011;34640;53.590;10.054;2022-07-18T06:31:33;9.48;;;3.90;;
48823;SDS011;34640;53.590;10.054;2022-07-18T06:34:07;7.53;;;3.65;;
48823;SDS011;34640;53.590;10.054;2022-07-18T06:36:40;8.43;;;3.92;;
48823;SDS011;34640;53.590;10.054;2022-07-18T06:39:13;10.98;;;4.30;;
48823;SDS011;34640;53.590;10.054;2022-07-18T06:41:55;13.13;;;4.43;;
48823;SDS011;34640;53.590;10.054;2022-07-18T06:44:30;14.40;;;6.00;;
48823;SDS011;34640;53.590;10.054;2022-07-18T06:47:03;9.88;;;4.30;;
48823;SDS011;34640;53.590;10.054;2022-07-18T06:49:36;8.35;;;3.97;;
48823;SDS011;34640;53.590;10.054;2022-07-18T06:52:14;9.90;;;4.20;;
48823;SDS011;34640;53.590;10.054;2022-07-18T06:54:47;10.95;;;4.20;;
48823;SDS011;34640;53.590;10.054;2022-07-18T06:57:20;14.20;;;4.45;;
48823;SDS011;34640;53.590;10.054;2022-07-18T06:59:54;12.45;;;4.97;;
48823;SDS011;34640;53.590;10.054;2022-07-18T07:02:30;10.95;;;4.45;;
48823;SDS011;34640;53.590;10.054;2022-07-18T07:05:03;7.78;;;4.35;;
48823;SDS011;34640;53.590;10.054;2022-07-18T07:07:36;11.50;;;4.30;;
48823;SDS011;34640;53.590;10.054;2022-07-18T07:10:17;11.48;;;4.60;;
48823;SDS011;34640;53.590;10.054;2022-07-18T07:12:51;13.52;;;5.05;;
48823;SDS011;34640;53.590;10.054;2022-07-18T07:15:26;8.23;;;4.30;;
48823;SDS011;34640;53.590;10.054;2022-07-18T07:17:59;10.13;;;4.28;;
48823;SDS011;34640;53.590;10.054;2022-07-18T07:20:32;10.00;;;4.90;;
48823;SDS011;34640;53.590;10.054;2022-07-18T07:23:06;10.00;;;4.45;;
48823;SDS011;34640;53.590;10.054;2022-07-18T07:25:40;9.70;;;4.55;;
48823;SDS011;34640;53.590;10.054;2022-07-18T07:28:13;9.98;;;5.05;;
48823;SDS011;34640;53.590;10.054;2022-07-18T07:30:47;13.27;;;4.55;;
48823;SDS011;34640;53.590;10.054;2022-07-18T07:33:20;11.60;;;5.55;;
48823;SDS011;34640;53.590;10.054;2022-07-18T07:35:59;12.70;;;4.70;;
48823;SDS011;34640;53.590;10.054;2022-07-18T07:38:32;11.85;;;4.50;;
48823;SDS011;34640;53.590;10.054;2022-07-18T07:41:05;10.73;;;4.75;;
48823;SDS011;34640;53.590;10.054;2022-07-18T07:43:38;11.57;;;4.50;;
48823;SDS011;34640;53.590;10.054;2022-07-18T07:46:13;13.30;;;4.78;;
48823;SDS011;34640;53.590;10.054;2022-07-18T07:48:46;9.52;;;4.78;;
48823;SDS011;34640;53.590;10.054;2022-07-18T07:51:20;10.50;;;4.95;;
48823;SDS011;34640;53.590;10.054;2022-07-18T07:53:56;10.27;;;4.68;;
48823;SDS011;34640;53.590;10.054;2022-07-18T07:56:29;11.85;;;5.18;;
48823;SDS011;34640;53.590;10.054;2022-07-18T07:59:02;10.90;;;4.60;;
48823;SDS011;34640;53.590;10.054;2022-07-18T08:01:37;9.70;;;5.03;;
48823;SDS011;34640;53.590;10.054;2022-07-18T08:04:10;9.80;;;5.13;;
48823;SDS011;34640;53.590;10.054;2022-07-18T08:06:43;17.95;;;5.38;;
48823;SDS011;34640;53.590;10.054;2022-07-18T08:09:16;9.50;;;4.93;;
48823;SDS011;34640;53.590;10.054;2022-07-18T08:11:49;14.88;;;5.90;;
48823;SDS011;34640;53.590;10.054;2022-07-18T08:14:22;8.73;;;5.30;;
48823;SDS011;34640;53.590;10.054;2022-07-18T08:16:57;10.90;;;5.30;;
48823;SDS011;34640;53.590;10.054;2022-07-18T08:19:31;12.15;;;5.53;;
48823;SDS011;34640;53.590;10.054;2022-07-18T08:22:04;8.95;;;5.18;;
48823;SDS011;34640;53.590;10.054;2022-07-18T08:24:37;12.60;;;6.78;;
48823;SDS011;34640;53.590;10.054;2022-07-18T08:27:10;9.80;;;5.43;;
48823;SDS011;34640;53.590;10.054;2022-07-18T08:29:44;13.32;;;6.05;;
48823;SDS011;34640;53.590;10.054;2022-07-18T08:32:38;10.23;;;5.85;;
48823;SDS011;34640;53.590;10.054;2022-07-18T08:35:12;11.70;;;5.38;;
48823;SDS011;34640;53.590;10.054;2022-07-18T08:37:45;14.32;;;5.45;;
48823;SDS011;34640;53.590;10.054;2022-07-18T08:40:18;18.30;;;5.78;;
48823;SDS011;34640;53.590;10.054;2022-07-18T08:42:52;10.65;;;5.45;;
48823;SDS011;34640;53.590;10.054;2022-07-18T08:45:47;10.27;;;4.80;;
48823;SDS011;34640;53.590;10.054;2022-07-18T08:48:21;12.60;;;5.07;;
48823;SDS011;34640;53.590;10.054;2022-07-18T08:50:55;10.15;;;5.00;;
48823;SDS011;34640;53.590;10.054;2022-07-18T08:53:28;12.32;;;5.25;;
48823;SDS011;34640;53.590;10.054;2022-07-18T08:56:02;10.43;;;4.97;;
48823;SDS011;34640;53.590;10.054;2022-07-18T08:58:35;12.25;;;5.30;;
48823;SDS011;34640;53.590;10.054;2022-07-18T09:01:17;12.38;;;4.65;;
48823;SDS011;34640;53.590;10.054;2022-07-18T09:03:52;8.70;;;4.97;;
48823;SDS011;34640;53.590;10.054;2022-07-18T09:06:42;8.10;;;4.30;;
48823;SDS011;34640;53.590;10.054;2022-07-18T09:09:17;8.02;;;4.35;;
48823;SDS011;34640;53.590;10.054;2022-07-18T09:11:51;10.23;;;5.55;;
48823;SDS011;34640;53.590;10.054;2022-07-18T09:14:29;11.00;;;5.07;;
48823;SDS011;34640;53.590;10.054;2022-07-18T09:17:06;8.90;;;4.70;;
48823;SDS011;34640;53.590;10.054;2022-07-18T09:19:43;11.30;;;4.28;;
48823;SDS011;34640;53.590;10.054;2022-07-18T09:22:31;12.35;;;6.00;;
48823;SDS011;34640;53.590;10.054;2022-07-18T09:25:08;8.73;;;3.95;;
48823;SDS011;34640;53.590;10.054;2022-07-18T09:27:44;9.35;;;4.32;;
48823;SDS011;34640;53.590;10.054;2022-07-18T09:30:24;11.10;;;4.50;;
48823;SDS011;34640;53.590;10.054;2022-07-18T09:33:05;7.45;;;4.78;;
48823;SDS011;34640;53.590;10.054;2022-07-18T09:35:43;9.73;;;4.32;;
48823;SDS011;34640;53.590;10.054;2022-07-18T09:38:18;11.98;;;4.53;;
48823;SDS011;34640;53.590;10.054;2022-07-18T09:40:53;8.32;;;4.22;;
48823;SDS011;34640;53.590;10.054;2022-07-18T09:43:28;10.57;;;4.85;;
48823;SDS011;34640;53.590;10.054;2022-07-18T09:46:09;12.85;;;4.35;;
48823;SDS011;34640;53.590;10.054;2022-07-18T09:54:38;7.70;;;5.07;;
48823;SDS011;34640;53.590;10.054;2022-07-18T09:57:22;8.70;;;4.15;;
48823;SDS011;34640;53.590;10.054;2022-07-18T09:59:56;15.13;;;4.72;;
48823;SDS011;34640;53.590;10.054;2022-07-18T10:02:29;8.40;;;4.65;;
48823;SDS011;34640;53.590;10.054;2022-07-18T10:05:04;9.25;;;4.53;;
48823;SDS011;34640;53.590;10.054;2022-07-18T10:07:42;11.07;;;4.32;;
48823;SDS011;34640;53.590;10.054;2022-07-18T10:10:17;9.57;;;4.10;;
48823;SDS011;34640;53.590;10.054;2022-07-18T10:12:51;8.07;;;4.32;;
48823;SDS011;34640;53.590;10.054;2022-07-18T10:15:27;8.00;;;4.68;;
48823;SDS011;34640;53.590;10.054;2022-07-18T10:18:02;10.55;;;4.30;;
48823;SDS011;34640;53.590;10.054;2022-07-18T10:20:37;14.23;;;4.15;;
48823;SDS011;34640;53.590;10.054;2022-07-18T10:23:17;11.68;;;5.25;;
48823;SDS011;34640;53.590;10.054;2022-07-18T10:26:07;10.00;;;4.55;;
48823;SDS011;34640;53.590;10.054;2022-07-18T10:34:34;11.13;;;4.45;;
48823;SDS011;34640;53.590;10.054;2022-07-18T10:37:11;9.73;;;4.22;;
48823;SDS011;34640;53.590;10.054;2022-07-18T10:39:45;9.98;;;4.00;;
48823;SDS011;34640;53.590;10.054;2022-07-18T10:42:19;7.95;;;4.38;;
48823;SDS011;34640;53.590;10.054;2022-07-18T10:44:55;10.43;;;5.13;;
48823;SDS011;34640;53.590;10.054;2022-07-18T10:47:28;9.38;;;4.00;;
48823;SDS011;34640;53.590;10.054;2022-07-18T10:50:06;9.13;;;5.05;;
48823;SDS011;34640;53.590;10.054;2022-07-18T10:52:56;9.35;;;4.90;;
48823;SDS011;34640;53.590;10.054;2022-07-18T10:55:34;9.18;;;4.40;;
48823;SDS011;34640;53.590;10.054;2022-07-18T10:58:15;10.18;;;3.90;;
48823;SDS011;34640;53.590;10.054;2022-07-18T11:00:49;9.20;;;4.25;;
48823;SDS011;34640;53.590;10.054;2022-07-18T11:03:27;6.95;;;4.15;;
48823;SDS011;34640;53.590;10.054;2022-07-18T11:06:01;8.35;;;4.25;;
48823;SDS011;34640;53.590;10.054;2022-07-18T11:08:36;9.88;;;4.07;;
48823;SDS011;34640;53.590;10.054;2022-07-18T11:11:11;7.10;;;4.47;;
48823;SDS011;34640;53.590;10.054;2022-07-18T11:13:47;9.23;;;4.50;;
48823;SDS011;34640;53.590;10.054;2022-07-18T11:16:23;10.13;;;4.10;;
48823;SDS011;34640;53.590;10.054;2022-07-18T11:19:16;8.32;;;4.50;;
48823;SDS011;34640;53.590;10.054;2022-07-18T11:21:55;11.20;;;3.83;;
48823;SDS011;34640;53.590;10.054;2022-07-18T11:24:30;9.68;;;4.43;;
48823;SDS011;34640;53.590;10.054;2022-07-18T11:27:05;7.55;;;4.03;;
48823;SDS011;34640;53.590;10.054;2022-07-18T11:29:41;10.95;;;4.45;;
48823;SDS011;34640;53.590;10.054;2022-07-18T11:32:19;8.80;;;4.13;;
48823;SDS011;34640;53.590;10.054;2022-07-18T11:34:53;11.68;;;4.88;;
48823;SDS011;34640;53.590;10.054;2022-07-18T11:37:26;7.55;;;4.32;;
48823;SDS011;34640;53.590;10.054;2022-07-18T11:40:03;8.52;;;4.18;;
48823;SDS011;34640;53.590;10.054;2022-07-18T11:42:39;10.65;;;4.88;;
48823;SDS011;34640;53.590;10.054;2022-07-18T11:45:14;10.65;;;3.95;;
48823;SDS011;34640;53.590;10.054;2022-07-18T11:47:49;7.85;;;3.80;;
48823;SDS011;34640;53.590;10.054;2022-07-18T11:50:33;6.93;;;4.40;;
48823;SDS011;34640;53.590;10.054;2022-07-18T11:53:07;11.73;;;4.28;;
48823;SDS011;34640;53.590;10.054;2022-07-18T11:55:41;8.45;;;4.35;;
48823;SDS011;34640;53.590;10.054;2022-07-18T11:58:16;6.97;;;3.85;;
48823;SDS011;34640;53.590;10.054;2022-07-18T12:00:50;6.38;;;3.80;;
48823;SDS011;34640;53.590;10.054;2022-07-18T12:03:23;6.45;;;3.80;;
48823;SDS011;34640;53.590;10.054;2022-07-18T12:05:56;7.40;;;3.58;;
48823;SDS011;34640;53.590;10.054;2022-07-18T12:08:31;8.95;;;3.72;;
48823;SDS011;34640;53.590;10.054;2022-07-18T12:11:13;8.85;;;3.70;;
48823;SDS011;34640;53.590;10.054;2022-07-18T12:13:51;8.60;;;3.85;;
48823;SDS011;34640;53.590;10.054;2022-07-18T12:16:29;13.18;;;4.22;;
48823;SDS011;34640;53.590;10.054;2022-07-18T12:19:05;8.68;;;3.70;;
48823;SDS011;34640;53.590;10.054;2022-07-18T12:21:52;6.03;;;3.80;;
48823;SDS011;34640;53.590;10.054;2022-07-18T12:24:31;9.93;;;3.83;;
48823;SDS011;34640;53.590;10.054;2022-07-18T12:27:09;7.07;;;3.65;;
48823;SDS011;34640;53.590;10.054;2022-07-18T12:29:56;6.60;;;3.90;;
48823;SDS011;34640;53.590;10.054;2022-07-18T12:32:38;7.63;;;3.60;;
48823;SDS011;34640;53.590;10.054;2022-07-18T12:35:19;6.45;;;3.38;;
48823;SDS011;34640;53.590;10.054;2022-07-18T12:37:54;6.15;;;4.00;;
48823;SDS011;34640;53.590;10.054;2022-07-18T12:40:38;8.52;;;3.83;;
48823;SDS011;34640;53.590;10.054;2022-07-18T12:43:13;7.07;;;3.35;;
48823;SDS011;34640;53.590;10.054;2022-07-18T12:45:49;7.22;;;3.75;;
48823;SDS011;34640;53.590;10.054;2022-07-18T12:48:22;7.82;;;3.42;;
48823;SDS011;34640;53.590;10.054;2022-07-18T12:50:55;10.75;;;3.78;;
48823;SDS011;34640;53.590;10.054;2022-07-18T12:53:31;7.80;;;3.50;;
48823;SDS011;34640;53.590;10.054;2022-07-18T12:56:06;7.35;;;3.20;;
48823;SDS011;34640;53.590;10.054;2022-07-18T12:58:40;6.13;;;3.40;;
48823;SDS011;34640;53.590;10.054;2022-07-18T13:01:14;4.85;;;3.13;;
48823;SDS011;34640;53.590;10.054;2022-07-18T13:03:47;8.45;;;3.78;;
48823;SDS011;34640;53.590;10.054;2022-07-18T13:06:20;11.00;;;3.58;;
48823;SDS011;34640;53.590;10.054;2022-07-18T13:08:54;7.80;;;3.70;;
48823;SDS011;34640;53.590;10.054;2022-07-18T13:11:26;7.18;;;3.53;;
48823;SDS011;34640;53.590;10.054;2022-07-18T13:14:02;8.85;;;4.18;;
48823;SDS011;34640;53.590;10.054;2022-07-18T13:16:36;5.97;;;3.20;;
48823;SDS011;34640;53.590;10.054;2022-07-18T13:19:09;4.80;;;3.25;;
48823;SDS011;34640;53.590;10.054;2022-07-18T13:21:43;5.15;;;3.38;;
48823;SDS011;34640;53.590;10.054;2022-07-18T13:24:17;5.97;;;3.45;;
48823;SDS011;34640;53.590;10.054;2022-07-18T13:27:06;8.75;;;4.53;;
48823;SDS011;34640;53.590;10.054;2022-07-18T13:29:40;9.45;;;3.72;;
48823;SDS011;34640;53.590;10.054;2022-07-18T13:32:14;6.75;;;3.63;;
48823;SDS011;34640;53.590;10.054;2022-07-18T13:34:47;5.88;;;3.10;;
48823;SDS011;34640;53.590;10.054;2022-07-18T13:37:20;6.60;;;3.00;;
48823;SDS011;34640;53.590;10.054;2022-07-18T13:39:54;6.88;;;3.28;;
48823;SDS011;34640;53.590;10.054;2022-07-18T13:42:27;6.18;;;2.55;;
48823;SDS011;34640;53.590;10.054;2022-07-18T13:45:00;5.00;;;2.83;;
48823;SDS011;34640;53.590;10.054;2022-07-18T13:47:35;8.05;;;2.83;;
48823;SDS011;34640;53.590;10.054;2022-07-18T13:50:09;5.45;;;2.65;;
48823;SDS011;34640;53.590;10.054;2022-07-18T13:52:44;4.53;;;2.72;;
48823;SDS011;34640;53.590;10.054;2022-07-18T13:55:17;4.95;;;2.50;;
48823;SDS011;34640;53.590;10.054;2022-07-18T13:57:50;7.35;;;4.70;;
48823;SDS011;34640;53.590;10.054;2022-07-18T14:00:23;4.55;;;2.65;;
48823;SDS011;34640;53.590;10.054;2022-07-18T14:02:58;6.57;;;3.22;;
48823;SDS011;34640;53.590;10.054;2022-07-18T14:05:31;7.38;;;2.80;;
48823;SDS011;34640;53.590;10.054;2022-07-18T14:08:04;6.65;;;3.00;;
48823;SDS011;34640;53.590;10.054;2022-07-18T14:10:38;6.13;;;2.75;;
48823;SDS011;34640;53.590;10.054;2022-07-18T14:13:11;6.30;;;3.90;;
48823;SDS011;34640;53.590;10.054;2022-07-18T14:15:44;10.27;;;3.55;;
48823;SDS011;34640;53.590;10.054;2022-07-18T14:18:26;5.78;;;2.35;;
48823;SDS011;34640;53.590;10.054;2022-07-18T14:20:59;4.70;;;2.80;;
48823;SDS011;34640;53.590;10.054;2022-07-18T14:23:32;5.25;;;2.60;;
48823;SDS011;34640;53.590;10.054;2022-07-18T14:26:05;6.25;;;2.70;;
48823;SDS011;34640;53.590;10.054;2022-07-18T14:28:38;4.68;;;2.80;;
48823;SDS011;34640;53.590;10.054;2022-07-18T14:31:12;5.40;;;2.78;;
48823;SDS011;34640;53.590;10.054;2022-07-18T14:33:46;7.43;;;3.20;;
48823;SDS011;34640;53.590;10.054;2022-07-18T14:36:20;4.95;;;2.60;;
48823;SDS011;34640;53.590;10.054;2022-07-18T14:38:54;5.95;;;2.70;;
48823;SDS011;34640;53.590;10.054;2022-07-18T14:41:27;8.50;;;2.92;;
48823;SDS011;34640;53.590;10.054;2022-07-18T14:44:01;6.32;;;2.78;;
48823;SDS011;34640;53.590;10.054;2022-07-18T14:46:34;6.65;;;2.88;;
48823;SDS011;34640;53.590;10.054;2022-07-18T14:49:08;6.30;;;2.60;;
48823;SDS011;34640;53.590;10.054;2022-07-18T14:51:42;6.68;;;2.90;;
48823;SDS011;34640;53.590;10.054;2022-07-18T14:54:15;6.22;;;2.97;;
48823;SDS011;34640;53.590;10.054;2022-07-18T14:56:48;6.68;;;3.03;;
48823;SDS011;34640;53.590;10.054;2022-07-18T14:59:22;6.50;;;3.28;;
48823;SDS011;34640;53.590;10.054;2022-07-18T15:01:56;5.32;;;2.55;;
48823;SDS011;34640;53.590;10.054;2022-07-18T15:04:32;6.18;;;3.08;;
48823;SDS011;34640;53.590;10.054;2022-07-18T15:07:07;6.45;;;3.22;;
48823;SDS011;34640;53.590;10.054;2022-07-18T15:09:40;5.63;;;2.97;;
48823;SDS011;34640;53.590;10.054;2022-07-18T15:12:13;7.57;;;4.13;;
48823;SDS011;34640;53.590;10.054;2022-07-18T15:14:46;4.40;;;3.10;;
48823;SDS011;34640;53.590;10.054;2022-07-18T15:17:19;5.53;;;2.75;;
48823;SDS011;34640;53.590;10.054;2022-07-18T15:19:54;5.75;;;2.90;;
48823;SDS011;34640;53.590;10.054;2022-07-18T15:22:28;5.68;;;2.95;;
48823;SDS011;34640;53.590;10.054;2022-07-18T15:25:01;6.53;;;3.15;;
48823;SDS011;34640;53.590;10.054;2022-07-18T15:27:34;4.32;;;2.80;;